»·PEaware :: SWA1580 KPHX-KLAS

SWA1580 :: KPHX-KLAS

FLIGHT INFORMATION

Flight Status: Arrived
Operator:
Southwest Airlines
More flights by this operator :: More flights under this callsign
Pilot: Kevin D. (15651)
Aircraft: BOEING 737-300
(B733)
More flights by this aircraft type
Origin: KPHX Phoenix Sky Harbor Intl
United States
Destination: KLAS McCarran Intl
United States
More flights between these airports :: More routes between these airports
Route: MAYSA5 SISIE IGM TYSSN5
File this flight plan on PilotEdge
Remarks:
Altitude:
(Current/Filed)
28,000ft
Speed:
(Current/Filed)
510kts
Departed: 29-Sep-17 01:14 PM
Arrived: 29-Sep-17 02:00 PM
Distance/Time
Traveled:
222nm/0:46
Distance/Time
To Go:
Arrived

Flight Plot

Page will automatically refresh every two minutes.

Flight plan parsing failed; only flown route is shown


Map Options




Map Legend


Flown Route
Filed Route
Departure Airport
Arrival Airport
Navaid (VOR, NDB)
Fix

Horizontal Profiles

Position Reports

Time Latitude Longitude Heading Altitude Ground
Speed
29-Sep-17 12:46 33.433434 -111.994502 35 1141ft 0kts
29-Sep-17 12:47 33.433434 -111.994502 35 1141ft 0kts
29-Sep-17 12:48 33.433434 -111.994502 35 1141ft 0kts
29-Sep-17 12:49 33.433434 -111.994502 35 1141ft 0kts
29-Sep-17 12:50 33.433434 -111.994502 35 1141ft 0kts
29-Sep-17 12:51 33.433434 -111.994502 35 1141ft 0kts
29-Sep-17 12:52 33.433434 -111.994502 35 1141ft 0kts
29-Sep-17 12:53 33.433434 -111.994502 35 1141ft 0kts
29-Sep-17 12:54 33.433434 -111.994502 35 1141ft 0kts
29-Sep-17 12:55 33.433434 -111.994502 35 1141ft 0kts
29-Sep-17 12:56 33.433434 -111.994502 35 1141ft 0kts
29-Sep-17 12:57 33.433434 -111.994502 35 1141ft 0kts
29-Sep-17 12:58 33.433434 -111.994502 35 1141ft 0kts
29-Sep-17 12:59 33.433434 -111.994502 35 1141ft 0kts
29-Sep-17 13:00 33.433434 -111.994502 35 1141ft 0kts
29-Sep-17 13:01 33.433434 -111.994502 35 1141ft 0kts
29-Sep-17 13:02 33.433434 -111.994502 35 1141ft 0kts
29-Sep-17 13:03 33.433434 -111.994502 35 1141ft 0kts
29-Sep-17 13:04 33.433434 -111.994502 35 1141ft 0kts
29-Sep-17 13:05 33.433434 -111.994502 35 1141ft 0kts
29-Sep-17 13:06 33.433434 -111.994502 35 1141ft 0kts
29-Sep-17 13:07 33.433362 -111.994564 35 1141ft 2kts
29-Sep-17 13:08 33.432927 -111.994936 35 1141ft 2kts
29-Sep-17 13:09 33.432832 -111.995192 120 1141ft 1kts
29-Sep-17 13:10 33.433250 -111.995307 178 1141ft 2kts
29-Sep-17 13:11 33.433348 -111.995308 180 1141ft 0kts
29-Sep-17 13:12 33.433348 -111.995308 180 1141ft 0kts
29-Sep-17 13:13 33.433348 -111.995308 180 1141ft 0kts
29-Sep-17 13:14 33.433287 -111.995308 180 1141ft 2kts
29-Sep-17 13:15 33.432096 -111.993907 103 1141ft 13kts
29-Sep-17 13:16 33.432006 -111.993675 126 1141ft 0kts
29-Sep-17 13:17 33.431039 -111.994972 269 1141ft 25kts
29-Sep-17 13:18 33.431047 -112.019209 269 1173ft 177kts
29-Sep-17 13:19 33.433210 -112.070861 282 2699ft 216kts
29-Sep-17 13:20 33.462780 -112.108627 323 3986ft 240kts
29-Sep-17 13:21 33.503943 -112.147414 319 4900ft 280kts
29-Sep-17 13:22 33.557528 -112.182429 345 6772ft 293kts
29-Sep-17 13:23 33.623906 -112.203529 345 8899ft 303kts
29-Sep-17 13:24 33.690236 -112.224867 344 10279ft 337kts
29-Sep-17 13:25 33.777395 -112.253005 344 11933ft 368kts
29-Sep-17 13:26 33.877275 -112.285331 343 14344ft 381kts
29-Sep-17 13:27 33.980554 -112.318839 343 16570ft 393kts
29-Sep-17 13:28 34.074830 -112.381273 317 18610ft 398kts
29-Sep-17 13:29 34.160143 -112.467280 317 20591ft 407kts
29-Sep-17 13:30 34.247293 -112.555027 317 22434ft 415kts
29-Sep-17 13:31 34.336807 -112.645432 317 24102ft 424kts
29-Sep-17 13:32 34.427320 -112.737337 316 25648ft 432kts
29-Sep-17 13:33 34.519996 -112.831492 316 27098ft 439kts
29-Sep-17 13:34 34.612152 -112.928939 314 28210ft 436kts
29-Sep-17 13:35 34.700443 -113.025514 315 28178ft 426kts
29-Sep-17 13:36 34.788440 -113.121777 315 28169ft 427kts
29-Sep-17 13:37 34.876052 -113.217900 315 28142ft 427kts
29-Sep-17 13:38 34.964126 -113.314820 315 28118ft 428kts
29-Sep-17 13:39 35.028632 -113.431262 300 27736ft 409kts
29-Sep-17 13:40 35.084713 -113.552767 301 27250ft 413kts
29-Sep-17 13:41 35.140864 -113.673409 300 26709ft 416kts
29-Sep-17 13:42 35.196450 -113.793725 296 25902ft 398kts
29-Sep-17 13:43 35.252762 -113.915936 298 23638ft 411kts
29-Sep-17 13:44 35.336826 -114.005071 321 21424ft 397kts
29-Sep-17 13:45 35.423065 -114.085040 321 19311ft 397kts
29-Sep-17 13:46 35.508488 -114.164687 322 17247ft 379kts
29-Sep-17 13:47 35.590324 -114.240957 322 15234ft 363kts
29-Sep-17 13:48 35.670786 -114.316113 322 13238ft 359kts
29-Sep-17 13:49 35.747723 -114.385752 337 12001ft 319kts
29-Sep-17 13:50 35.827565 -114.423241 339 12024ft 306kts
29-Sep-17 13:51 35.904857 -114.459376 339 12043ft 287kts
29-Sep-17 13:52 35.980808 -114.494922 339 10626ft 284kts
29-Sep-17 13:53 36.043773 -114.545818 282 9805ft 274kts
29-Sep-17 13:54 36.057638 -114.635614 282 8447ft 260kts
29-Sep-17 13:55 36.072404 -114.722733 281 8552ft 248kts
29-Sep-17 13:56 36.073336 -114.798273 264 7638ft 230kts
29-Sep-17 13:57 36.072881 -114.867093 271 6332ft 227kts
29-Sep-17 13:58 36.073583 -114.933001 270 5257ft 214kts
29-Sep-17 13:59 36.073559 -114.987245 270 4386ft 203kts
29-Sep-17 14:00 36.073626 -115.032411 270 3659ft 163kts
29-Sep-17 14:01 36.073629 -115.068376 271 3099ft 153kts
29-Sep-17 14:02 36.073616 -115.103439 270 2572ft 152kts
29-Sep-17 14:03 36.073676 -115.137122 269 2152ft 150kts
29-Sep-17 14:04 36.073644 -115.159729 271 2148ft 38kts
29-Sep-17 14:05 36.074294 -115.161272 359 2148ft 0kts
29-Sep-17 14:06 36.074444 -115.161274 0 2148ft 0kts
29-Sep-17 14:07 36.074445 -115.161274 0 2148ft 0kts
29-Sep-17 14:08 36.074505 -115.161273 0 2148ft 2kts
29-Sep-17 14:09 36.076256 -115.161273 359 2148ft 18kts
29-Sep-17 14:10 36.078019 -115.158634 91 2148ft 24kts
29-Sep-17 14:11 36.078010 -115.153062 91 2148ft 28kts
29-Sep-17 14:12 36.079134 -115.148717 49 2148ft 15kts
29-Sep-17 14:13 36.079942 -115.147093 56 2148ft 0kts
29-Sep-17 14:14 36.079942 -115.147093 56 2148ft 0kts
29-Sep-17 14:15 36.079942 -115.147093 56 2148ft 0kts

Navigation Log

Ident Type
Flight plan parsing failed, navigation log unavailable